createdAt,value
2023-01-09T00:05:44.634Z,17.00
2023-01-09T00:19:37.553Z,16.50
2023-01-09T00:21:11.873Z,17.00
2023-01-09T00:22:46.236Z,15.60
2023-01-09T00:24:13.204Z,16.80
2023-01-09T00:25:56.147Z,16.70
2023-01-09T01:14:33.213Z,15.20
2023-01-09T01:16:06.098Z,16.00
2023-01-09T01:17:38.775Z,15.10
2023-01-09T01:19:13.041Z,14.10
2023-01-09T01:20:46.820Z,14.10
2023-01-09T01:22:10.398Z,14.20
2023-01-09T01:30:17.627Z,13.50
2023-01-09T01:31:50.319Z,14.30
2023-01-09T01:33:23.097Z,14.70
2023-01-09T01:34:56.894Z,13.90
2023-01-09T01:46:10.284Z,13.30
2023-01-09T01:47:46.814Z,13.90
2023-01-09T01:49:19.435Z,13.90
2023-01-09T01:51:07.168Z,13.50
2023-01-09T01:52:42.856Z,14.20
2023-01-09T01:54:15.492Z,13.60
2023-01-09T01:55:48.606Z,14.10
2023-01-09T01:57:21.448Z,14.40
2023-01-09T02:14:38.379Z,13.00
2023-01-09T02:16:14.036Z,13.10
2023-01-09T02:17:53.075Z,13.60
2023-01-09T02:19:51.194Z,13.70
2023-01-09T02:21:31.950Z,13.30
2023-01-09T02:23:15.932Z,13.20
2023-01-09T02:25:02.031Z,12.50
2023-01-09T02:26:47.041Z,12.50
2023-01-09T02:28:42.526Z,12.50
2023-01-09T02:30:17.373Z,12.70
2023-01-09T02:31:55.831Z,12.40
2023-01-09T02:35:26.683Z,12.50
2023-01-09T02:39:04.940Z,12.30
2023-01-09T02:40:49.700Z,12.90
2023-01-09T02:42:28.339Z,11.40
2023-01-09T02:44:01.043Z,13.10
2023-01-09T02:45:35.187Z,13.10
2023-01-09T02:47:13.877Z,11.90
2023-01-09T02:48:46.627Z,13.00
2023-01-09T02:50:20.248Z,11.70
2023-01-09T02:53:40.740Z,12.90
2023-01-09T02:56:32.004Z,12.10
2023-01-09T02:58:23.389Z,11.70
2023-01-09T03:00:06.887Z,10.90
2023-01-09T03:02:55.154Z,11.40
2023-01-09T03:04:50.787Z,11.50
2023-01-09T03:15:45.590Z,11.40
2023-01-09T03:17:08.400Z,11.60
2023-01-09T03:18:35.576Z,12.10
2023-01-09T03:19:58.507Z,12.40
2023-01-09T03:34:23.334Z,11.00
2023-01-09T03:35:55.980Z,12.10
2023-01-09T03:37:28.832Z,10.60
2023-01-09T03:38:41.522Z,11.10
2023-01-09T03:51:13.359Z,10.70
2023-01-09T03:52:46.078Z,10.90
2023-01-09T03:54:19.161Z,11.00
2023-01-09T03:55:53.011Z,10.40
2023-01-09T03:57:26.953Z,11.20
2023-01-09T04:08:22.411Z,9.90
2023-01-09T04:09:56.678Z,11.70
2023-01-09T04:11:30.863Z,11.30
2023-01-09T04:13:06.390Z,11.60
2023-01-09T04:27:20.744Z,10.90
2023-01-09T04:28:53.455Z,10.80
2023-01-09T04:30:16.193Z,11.30
2023-01-09T04:31:49.945Z,10.80
2023-01-09T04:33:23.911Z,11.00
2023-01-09T04:43:02.649Z,11.30
2023-01-09T04:44:15.264Z,11.20
2023-01-09T04:45:48.235Z,10.80
2023-01-09T04:47:21.252Z,11.50
2023-01-09T04:48:55.525Z,11.30
2023-01-09T04:50:31.283Z,10.90
2023-01-09T04:52:06.425Z,10.60
2023-01-09T04:53:40.827Z,9.80
2023-01-09T04:55:15.047Z,12.40
2023-01-09T04:56:52.900Z,9.40
2023-01-09T04:59:58.739Z,10.40
2023-01-09T05:09:20.852Z,9.70
2023-01-09T05:10:54.902Z,10.30
2023-01-09T05:12:29.952Z,10.70
2023-01-09T05:14:04.438Z,10.30
2023-01-09T05:15:39.779Z,10.00
2023-01-09T05:20:28.135Z,11.00
2023-01-09T05:21:55.322Z,11.20
2023-01-09T05:36:53.761Z,10.10
2023-01-09T05:38:28.234Z,9.30
2023-01-09T05:40:03.942Z,9.80
2023-01-09T05:41:41.120Z,9.70
2023-01-09T12:30:22.885Z,6.30
2023-01-09T12:32:00.293Z,7.20
2023-01-09T12:33:40.427Z,7.30
2023-01-09T12:35:35.844Z,6.40
2023-01-09T12:37:11.616Z,7.30
2023-01-09T12:38:57.719Z,6.70
2023-01-09T12:40:56.592Z,6.50
2023-01-09T12:45:41.549Z,6.10
2023-01-09T12:47:18.584Z,7.70
2023-01-09T12:49:08.262Z,6.50
2023-01-09T12:50:50.656Z,6.50
2023-01-09T12:52:42.655Z,6.60
2023-01-09T12:54:28.470Z,6.70
2023-01-09T12:56:20.625Z,7.00
2023-01-09T12:57:38.686Z,7.20
2023-01-09T12:59:18.570Z,6.30
2023-01-09T13:00:53.534Z,5.90
2023-01-09T13:04:24.858Z,5.90
2023-01-09T13:06:02.278Z,5.00
2023-01-09T13:07:37.684Z,7.40
2023-01-09T13:09:24.592Z,5.30
2023-01-09T13:25:49.608Z,8.30
2023-01-09T13:42:33.281Z,5.90
2023-01-09T13:44:07.431Z,6.10
2023-01-09T13:45:41.628Z,4.90
2023-01-09T13:47:22.413Z,4.90
2023-01-09T13:48:57.940Z,5.30
2023-01-09T13:50:32.822Z,7.00
2023-01-09T13:57:24.451Z,7.10
2023-01-09T14:12:58.976Z,9.90
2023-01-09T14:14:26.308Z,8.40
2023-01-09T14:16:06.271Z,8.50
2023-01-09T14:17:19.580Z,8.20
2023-01-09T14:19:06.381Z,8.50
2023-01-09T14:22:25.373Z,1.40
2023-01-09T14:24:06.107Z,6.30
2023-01-09T14:27:27.208Z,7.70
2023-01-09T14:29:02.365Z,8.10
2023-01-09T14:30:37.803Z,9.80
2023-01-09T14:32:12.321Z,24.50
2023-01-09T14:34:16.760Z,18.40
2023-01-09T14:35:57.475Z,26.00
2023-01-09T14:37:17.375Z,30.90
2023-01-09T14:39:05.416Z,30.30
2023-01-09T14:42:47.683Z,28.50
2023-01-09T14:46:07.382Z,16.60
2023-01-09T14:47:42.473Z,17.10
2023-01-09T14:49:17.122Z,29.10
2023-01-09T14:51:10.482Z,25.70
2023-01-09T14:52:46.303Z,28.30
2023-01-09T14:54:27.982Z,49.50
2023-01-09T14:55:58.099Z,17.10
2023-01-09T14:57:32.661Z,19.20
2023-01-09T14:59:12.676Z,17.60
2023-01-09T15:00:47.252Z,13.50
2023-01-09T15:02:24.407Z,16.20
2023-01-09T15:03:59.946Z,11.10
2023-01-09T15:05:35.100Z,10.60
2023-01-09T15:07:10.649Z,8.90
2023-01-09T15:08:46.340Z,11.40
2023-01-09T15:10:27.953Z,6.90
2023-01-09T15:24:53.300Z,8.80
2023-01-09T15:26:28.768Z,11.10
2023-01-09T15:28:01.751Z,13.30
2023-01-09T15:29:34.702Z,10.80
2023-01-09T15:31:10.620Z,10.00
2023-01-09T15:42:08.401Z,13.30
2023-01-09T15:43:42.846Z,12.30
2023-01-09T15:45:26.395Z,11.10
2023-01-09T15:47:56.923Z,10.80
2023-01-09T15:49:31.075Z,11.40
2023-01-09T15:50:54.192Z,12.20
2023-01-09T15:52:28.509Z,20.10
2023-01-09T15:54:03.522Z,11.80
2023-01-09T15:55:38.926Z,9.10
2023-01-09T15:57:14.316Z,12.50
2023-01-09T15:59:09.280Z,16.00
2023-01-09T16:00:53.771Z,11.30
2023-01-09T16:02:38.501Z,10.00
2023-01-09T16:04:15.451Z,9.20
2023-01-09T16:05:50.650Z,10.90
2023-01-09T16:07:24.807Z,12.70
2023-01-09T16:09:08.179Z,15.80
2023-01-09T16:10:42.389Z,25.80
2023-01-09T16:12:35.030Z,29.30
2023-01-09T16:14:09.254Z,24.70
2023-01-09T16:15:43.029Z,34.10
2023-01-09T16:17:17.388Z,27.10
2023-01-09T16:18:56.265Z,23.20
2023-01-09T16:20:54.663Z,20.20
2023-01-09T16:22:40.797Z,19.30
2023-01-09T16:28:37.410Z,18.80
2023-01-09T16:30:28.029Z,18.70
2023-01-09T16:50:52.688Z,17.60
2023-01-09T16:53:37.918Z,17.90
2023-01-09T16:55:10.923Z,17.50
2023-01-09T16:56:22.894Z,22.80
2023-01-09T16:57:56.897Z,20.90
2023-01-09T16:59:30.124Z,17.00
2023-01-09T17:01:04.124Z,18.60
2023-01-09T17:04:36.826Z,19.40
2023-01-09T17:06:02.664Z,16.70
2023-01-09T17:07:35.520Z,14.00
2023-01-09T17:10:35.757Z,12.50
2023-01-09T17:13:21.379Z,11.40
2023-01-09T17:18:34.626Z,15.20
2023-01-09T17:19:56.406Z,11.90
2023-01-09T17:24:41.265Z,11.10
2023-01-09T17:26:27.354Z,13.00
2023-01-09T17:27:58.409Z,17.30
2023-01-09T17:29:31.847Z,18.00
2023-01-09T17:31:05.888Z,19.30
2023-01-09T17:32:40.190Z,19.10
2023-01-09T17:34:20.369Z,19.90
2023-01-09T17:48:17.158Z,13.50
2023-01-09T17:49:44.843Z,14.90
2023-01-09T17:51:17.900Z,15.50
2023-01-09T17:52:51.172Z,14.80
2023-01-09T17:57:09.937Z,25.40
2023-01-09T18:07:00.421Z,20.70
2023-01-09T18:08:33.562Z,22.50
2023-01-09T18:11:19.196Z,17.70
2023-01-09T18:14:04.273Z,15.30
2023-01-09T18:15:36.880Z,14.20
2023-01-09T18:17:10.379Z,15.40
2023-01-09T18:18:44.587Z,18.50
2023-01-09T18:23:21.976Z,19.90
2023-01-09T18:24:55.106Z,23.80
2023-01-09T18:27:20.338Z,21.40
2023-01-09T18:28:53.741Z,18.30
2023-01-09T18:30:26.553Z,17.90
2023-01-09T18:31:59.865Z,16.50
2023-01-09T18:40:09.050Z,14.80
2023-01-09T18:41:42.778Z,13.90
2023-01-09T18:43:09.432Z,13.60
2023-01-09T18:44:43.867Z,13.90
2023-01-09T18:46:18.334Z,14.00
2023-01-09T18:47:52.869Z,14.70
2023-01-09T18:49:27.296Z,17.20
2023-01-09T18:57:19.796Z,50.10
2023-01-09T19:00:04.923Z,27.20
2023-01-09T19:01:37.659Z,22.20
2023-01-09T19:03:16.021Z,23.80
2023-01-09T19:04:49.484Z,25.50
2023-01-09T19:06:02.330Z,26.40
2023-01-09T19:07:35.581Z,31.80
2023-01-09T19:09:11.653Z,56.50
2023-01-09T19:11:56.179Z,22.60
2023-01-09T19:21:39.667Z,40.80
2023-01-09T19:23:12.611Z,36.40
2023-01-09T19:25:53.979Z,30.00
2023-01-09T19:27:27.478Z,32.40
2023-01-09T19:29:00.447Z,42.20
2023-01-09T19:31:47.903Z,30.00
2023-01-09T19:33:21.075Z,30.20
2023-01-09T19:36:07.430Z,46.90
2023-01-09T19:37:09.456Z,46.40
2023-01-09T19:38:45.950Z,41.90
2023-01-09T19:40:19.130Z,40.80
2023-01-09T19:43:04.887Z,24.70
2023-01-09T19:44:37.821Z,22.20
2023-01-09T19:46:10.976Z,20.90
2023-01-09T19:47:44.054Z,20.60
2023-01-09T19:49:17.488Z,18.60
2023-01-09T19:50:56.221Z,18.60
2023-01-09T19:52:30.729Z,18.00
2023-01-09T19:54:15.592Z,18.60
2023-01-09T19:55:49.913Z,17.20
2023-01-09T19:57:24.314Z,19.50
2023-01-09T19:58:58.329Z,19.30
2023-01-09T20:12:59.780Z,27.10
2023-01-09T20:14:32.712Z,24.50
2023-01-09T20:17:18.265Z,23.10
2023-01-09T20:20:03.472Z,21.10
2023-01-09T20:29:15.916Z,19.30
2023-01-09T20:30:50.899Z,17.50
2023-01-09T20:32:26.240Z,19.50
2023-01-09T20:34:01.652Z,19.40
2023-01-09T20:45:02.218Z,25.10
2023-01-09T20:46:35.106Z,30.10
2023-01-09T20:48:07.994Z,25.60
2023-01-09T20:49:41.149Z,20.90
2023-01-09T20:58:46.667Z,23.20
2023-01-09T21:00:20.917Z,21.00
2023-01-09T21:01:55.416Z,28.40
2023-01-09T21:03:30.987Z,25.80
2023-01-09T21:05:06.561Z,24.10
2023-01-09T21:06:42.250Z,27.70
2023-01-09T21:08:16.931Z,29.10
2023-01-09T21:09:52.268Z,24.80
2023-01-09T21:11:41.222Z,21.40
2023-01-09T21:40:57.425Z,22.10
2023-01-09T21:42:30.043Z,23.60
2023-01-09T21:44:03.042Z,25.60
2023-01-09T21:45:36.009Z,25.20
2023-01-09T21:47:12.894Z,26.50
2023-01-09T21:48:47.118Z,23.20
2023-01-09T21:50:24.229Z,22.80
2023-01-09T21:51:59.215Z,21.40
2023-01-09T21:53:26.555Z,18.60
2023-01-09T21:55:06.477Z,16.80
2023-01-09T21:56:21.779Z,18.20
2023-01-09T22:10:36.097Z,25.00
2023-01-09T22:12:09.002Z,25.20
2023-01-09T22:15:06.923Z,23.50
2023-01-09T22:16:46.542Z,23.30
2023-01-09T22:21:47.045Z,19.80
2023-01-09T22:23:19.934Z,17.70
2023-01-09T22:24:53.280Z,19.30
2023-01-09T22:26:07.260Z,18.60
2023-01-09T22:27:41.598Z,19.40
2023-01-09T22:29:16.471Z,19.50
2023-01-09T22:30:51.618Z,18.40
2023-01-09T22:32:25.160Z,18.10
2023-01-09T22:40:23.096Z,18.50
2023-01-09T22:41:38.847Z,17.70
2023-01-09T22:43:11.626Z,19.00
2023-01-09T22:44:45.391Z,19.60
2023-01-09T22:46:19.543Z,18.30
2023-01-09T22:47:54.230Z,18.90
2023-01-09T22:49:33.541Z,18.50
2023-01-09T22:51:14.792Z,19.30
2023-01-09T23:01:33.392Z,20.70
2023-01-09T23:06:28.115Z,20.40
2023-01-09T23:08:01.320Z,20.50
2023-01-09T23:09:34.246Z,21.00
2023-01-09T23:11:07.212Z,20.10
2023-01-09T23:12:29.742Z,21.40
2023-01-09T23:15:10.717Z,21.10
2023-01-09T23:16:55.131Z,22.20
2023-01-09T23:18:30.701Z,21.80
2023-01-09T23:29:41.824Z,21.90
2023-01-09T23:31:07.429Z,23.10
2023-01-09T23:32:40.736Z,21.80
2023-01-09T23:34:14.795Z,22.90
2023-01-09T23:35:48.240Z,21.60
2023-01-09T23:45:17.402Z,20.70
2023-01-09T23:54:33.829Z,21.10
2023-01-09T23:56:07.894Z,20.20
2023-01-09T23:57:41.840Z,20.60
